sensor_id;sensor_type;location;lat;lon;timestamp;P1;durP1;ratioP1;P2;durP2;ratioP2
36751;SDS011;22718;49.494;7.036;2022-10-16T00:01:45;5.28;;;0.40;;
36751;SDS011;22718;49.494;7.036;2022-10-16T00:04:11;1.13;;;0.20;;
36751;SDS011;22718;49.494;7.036;2022-10-16T00:06:37;2.65;;;0.20;;
36751;SDS011;22718;49.494;7.036;2022-10-16T00:09:04;7.35;;;0.25;;
36751;SDS011;22718;49.494;7.036;2022-10-16T00:11:32;0.70;;;0.20;;
36751;SDS011;22718;49.494;7.036;2022-10-16T00:13:59;4.93;;;0.40;;
36751;SDS011;22718;49.494;7.036;2022-10-16T00:16:26;1.15;;;0.20;;
36751;SDS011;22718;49.494;7.036;2022-10-16T00:18:53;1.70;;;0.10;;
36751;SDS011;22718;49.494;7.036;2022-10-16T00:21:20;2.75;;;0.30;;
36751;SDS011;22718;49.494;7.036;2022-10-16T00:23:55;1.25;;;0.10;;
36751;SDS011;22718;49.494;7.036;2022-10-16T00:26:22;0.65;;;0.10;;
36751;SDS011;22718;49.494;7.036;2022-10-16T00:28:48;1.83;;;0.20;;
36751;SDS011;22718;49.494;7.036;2022-10-16T00:31:16;3.97;;;0.20;;
36751;SDS011;22718;49.494;7.036;2022-10-16T00:33:43;0.80;;;0.10;;
36751;SDS011;22718;49.494;7.036;2022-10-16T00:36:10;4.57;;;0.30;;
36751;SDS011;22718;49.494;7.036;2022-10-16T00:38:36;0.28;;;0.10;;
36751;SDS011;22718;49.494;7.036;2022-10-16T00:41:03;2.47;;;0.57;;
36751;SDS011;22718;49.494;7.036;2022-10-16T00:43:33;3.55;;;0.10;;
36751;SDS011;22718;49.494;7.036;2022-10-16T00:46:04;3.35;;;0.15;;
36751;SDS011;22718;49.494;7.036;2022-10-16T00:48:37;1.05;;;0.13;;
36751;SDS011;22718;49.494;7.036;2022-10-16T00:51:03;2.70;;;0.25;;
36751;SDS011;22718;49.494;7.036;2022-10-16T00:53:30;5.05;;;0.80;;
36751;SDS011;22718;49.494;7.036;2022-10-16T00:55:56;3.65;;;0.10;;
36751;SDS011;22718;49.494;7.036;2022-10-16T00:58:22;0.85;;;0.30;;
36751;SDS011;22718;49.494;7.036;2022-10-16T01:00:47;0.30;;;0.10;;
36751;SDS011;22718;49.494;7.036;2022-10-16T01:03:33;2.40;;;0.20;;
36751;SDS011;22718;49.494;7.036;2022-10-16T01:09:17;1.63;;;0.20;;
36751;SDS011;22718;49.494;7.036;2022-10-16T01:28:20;4.28;;;1.98;;
36751;SDS011;22718;49.494;7.036;2022-10-16T01:30:49;5.38;;;2.70;;
36751;SDS011;22718;49.494;7.036;2022-10-16T01:33:20;6.00;;;3.22;;
36751;SDS011;22718;49.494;7.036;2022-10-16T01:38:26;14.10;;;5.53;;
36751;SDS011;22718;49.494;7.036;2022-10-16T01:40:59;8.75;;;4.60;;
36751;SDS011;22718;49.494;7.036;2022-10-16T01:43:31;8.60;;;5.20;;
36751;SDS011;22718;49.494;7.036;2022-10-16T01:46:02;10.13;;;4.78;;
36751;SDS011;22718;49.494;7.036;2022-10-16T01:48:28;12.38;;;4.95;;
36751;SDS011;22718;49.494;7.036;2022-10-16T01:51:06;8.73;;;5.03;;
36751;SDS011;22718;49.494;7.036;2022-10-16T01:53:40;9.60;;;4.22;;
36751;SDS011;22718;49.494;7.036;2022-10-16T01:56:09;9.38;;;4.40;;
36751;SDS011;22718;49.494;7.036;2022-10-16T01:58:38;6.32;;;3.10;;
36751;SDS011;22718;49.494;7.036;2022-10-16T02:01:08;6.70;;;2.83;;
36751;SDS011;22718;49.494;7.036;2022-10-16T02:03:37;7.35;;;3.00;;
36751;SDS011;22718;49.494;7.036;2022-10-16T02:06:06;6.00;;;2.30;;
36751;SDS011;22718;49.494;7.036;2022-10-16T02:08:32;7.35;;;3.05;;
36751;SDS011;22718;49.494;7.036;2022-10-16T02:10:59;10.15;;;3.92;;
36751;SDS011;22718;49.494;7.036;2022-10-16T02:16:00;5.78;;;2.83;;
36751;SDS011;22718;49.494;7.036;2022-10-16T02:18:32;8.75;;;3.45;;
36751;SDS011;22718;49.494;7.036;2022-10-16T02:21:07;5.15;;;2.47;;
36751;SDS011;22718;49.494;7.036;2022-10-16T02:23:45;5.90;;;3.08;;
36751;SDS011;22718;49.494;7.036;2022-10-16T02:26:23;5.35;;;2.85;;
36751;SDS011;22718;49.494;7.036;2022-10-16T02:28:58;8.15;;;3.08;;
36751;SDS011;22718;49.494;7.036;2022-10-16T02:31:30;6.95;;;3.10;;
36751;SDS011;22718;49.494;7.036;2022-10-16T02:33:59;6.60;;;3.10;;
36751;SDS011;22718;49.494;7.036;2022-10-16T02:36:27;5.70;;;3.08;;
36751;SDS011;22718;49.494;7.036;2022-10-16T02:38:54;6.55;;;3.38;;
36751;SDS011;22718;49.494;7.036;2022-10-16T02:41:21;7.45;;;3.42;;
36751;SDS011;22718;49.494;7.036;2022-10-16T02:43:47;7.00;;;3.20;;
36751;SDS011;22718;49.494;7.036;2022-10-16T02:46:14;6.88;;;2.85;;
36751;SDS011;22718;49.494;7.036;2022-10-16T02:48:40;6.10;;;3.13;;
36751;SDS011;22718;49.494;7.036;2022-10-16T02:51:06;10.38;;;3.15;;
36751;SDS011;22718;49.494;7.036;2022-10-16T02:53:31;4.50;;;1.90;;
36751;SDS011;22718;49.494;7.036;2022-10-16T02:55:57;6.63;;;1.88;;
36751;SDS011;22718;49.494;7.036;2022-10-16T02:58:22;3.45;;;1.70;;
36751;SDS011;22718;49.494;7.036;2022-10-16T03:00:48;4.78;;;1.95;;
36751;SDS011;22718;49.494;7.036;2022-10-16T03:03:14;3.97;;;1.48;;
36751;SDS011;22718;49.494;7.036;2022-10-16T03:05:39;3.97;;;1.80;;
36751;SDS011;22718;49.494;7.036;2022-10-16T03:08:05;5.65;;;1.67;;
36751;SDS011;22718;49.494;7.036;2022-10-16T03:10:30;2.80;;;1.08;;
36751;SDS011;22718;49.494;7.036;2022-10-16T03:12:56;3.50;;;1.27;;
36751;SDS011;22718;49.494;7.036;2022-10-16T03:15:21;4.90;;;2.25;;
36751;SDS011;22718;49.494;7.036;2022-10-16T03:17:47;11.23;;;1.67;;
36751;SDS011;22718;49.494;7.036;2022-10-16T03:20:13;6.03;;;1.85;;
36751;SDS011;22718;49.494;7.036;2022-10-16T03:22:39;4.32;;;1.67;;
36751;SDS011;22718;49.494;7.036;2022-10-16T03:25:04;3.85;;;1.17;;
36751;SDS011;22718;49.494;7.036;2022-10-16T03:27:30;5.07;;;1.40;;
36751;SDS011;22718;49.494;7.036;2022-10-16T03:29:56;2.80;;;1.00;;
36751;SDS011;22718;49.494;7.036;2022-10-16T03:32:21;4.30;;;1.25;;
36751;SDS011;22718;49.494;7.036;2022-10-16T03:34:47;9.82;;;2.20;;
36751;SDS011;22718;49.494;7.036;2022-10-16T03:37:13;4.57;;;1.40;;
36751;SDS011;22718;49.494;7.036;2022-10-16T03:39:38;4.20;;;1.40;;
36751;SDS011;22718;49.494;7.036;2022-10-16T03:42:04;7.55;;;2.10;;
36751;SDS011;22718;49.494;7.036;2022-10-16T03:44:29;8.25;;;1.52;;
36751;SDS011;22718;49.494;7.036;2022-10-16T03:46:55;6.25;;;1.05;;
36751;SDS011;22718;49.494;7.036;2022-10-16T03:49:20;9.52;;;1.00;;
36751;SDS011;22718;49.494;7.036;2022-10-16T03:51:46;4.57;;;1.00;;
36751;SDS011;22718;49.494;7.036;2022-10-16T03:54:12;5.20;;;1.83;;
36751;SDS011;22718;49.494;7.036;2022-10-16T03:56:38;4.25;;;1.73;;
36751;SDS011;22718;49.494;7.036;2022-10-16T03:59:03;2.95;;;1.20;;
36751;SDS011;22718;49.494;7.036;2022-10-16T04:01:29;4.03;;;1.73;;
36751;SDS011;22718;49.494;7.036;2022-10-16T04:03:54;3.42;;;1.15;;
36751;SDS011;22718;49.494;7.036;2022-10-16T04:06:20;5.22;;;1.58;;
36751;SDS011;22718;49.494;7.036;2022-10-16T04:08:46;3.20;;;0.90;;
36751;SDS011;22718;49.494;7.036;2022-10-16T04:11:11;3.70;;;1.30;;
36751;SDS011;22718;49.494;7.036;2022-10-16T04:13:37;3.05;;;1.20;;
36751;SDS011;22718;49.494;7.036;2022-10-16T04:16:03;3.17;;;1.23;;
36751;SDS011;22718;49.494;7.036;2022-10-16T04:18:29;4.15;;;1.10;;
36751;SDS011;22718;49.494;7.036;2022-10-16T04:20:54;5.20;;;1.35;;
36751;SDS011;22718;49.494;7.036;2022-10-16T04:23:20;3.53;;;1.40;;
36751;SDS011;22718;49.494;7.036;2022-10-16T04:25:47;4.78;;;1.10;;
36751;SDS011;22718;49.494;7.036;2022-10-16T04:28:13;4.43;;;1.52;;
36751;SDS011;22718;49.494;7.036;2022-10-16T04:30:39;6.38;;;1.50;;
36751;SDS011;22718;49.494;7.036;2022-10-16T04:33:04;3.88;;;1.63;;
36751;SDS011;22718;49.494;7.036;2022-10-16T04:35:30;3.67;;;1.60;;
36751;SDS011;22718;49.494;7.036;2022-10-16T04:37:58;6.70;;;1.42;;
36751;SDS011;22718;49.494;7.036;2022-10-16T04:40:24;4.25;;;1.40;;
36751;SDS011;22718;49.494;7.036;2022-10-16T04:42:50;4.38;;;1.77;;
36751;SDS011;22718;49.494;7.036;2022-10-16T04:45:15;2.65;;;0.98;;
36751;SDS011;22718;49.494;7.036;2022-10-16T04:47:41;10.48;;;2.83;;
36751;SDS011;22718;49.494;7.036;2022-10-16T04:50:06;3.97;;;1.50;;
36751;SDS011;22718;49.494;7.036;2022-10-16T04:52:33;8.48;;;1.38;;
36751;SDS011;22718;49.494;7.036;2022-10-16T04:54:58;3.17;;;1.30;;
36751;SDS011;22718;49.494;7.036;2022-10-16T04:57:27;2.38;;;0.82;;
36751;SDS011;22718;49.494;7.036;2022-10-16T04:59:54;3.97;;;1.05;;
36751;SDS011;22718;49.494;7.036;2022-10-16T05:02:19;4.72;;;1.25;;
36751;SDS011;22718;49.494;7.036;2022-10-16T05:04:45;5.38;;;0.95;;
36751;SDS011;22718;49.494;7.036;2022-10-16T05:07:10;2.63;;;0.77;;
36751;SDS011;22718;49.494;7.036;2022-10-16T05:09:36;1.95;;;0.45;;
36751;SDS011;22718;49.494;7.036;2022-10-16T05:12:02;6.20;;;0.75;;
36751;SDS011;22718;49.494;7.036;2022-10-16T05:14:28;1.90;;;0.57;;
36751;SDS011;22718;49.494;7.036;2022-10-16T05:16:54;1.83;;;0.52;;
36751;SDS011;22718;49.494;7.036;2022-10-16T05:19:20;2.80;;;0.60;;
36751;SDS011;22718;49.494;7.036;2022-10-16T05:21:45;4.68;;;0.73;;
36751;SDS011;22718;49.494;7.036;2022-10-16T05:24:11;2.30;;;0.40;;
36751;SDS011;22718;49.494;7.036;2022-10-16T05:26:36;2.60;;;0.50;;
36751;SDS011;22718;49.494;7.036;2022-10-16T05:29:02;4.55;;;0.60;;
36751;SDS011;22718;49.494;7.036;2022-10-16T05:31:28;3.00;;;0.40;;
36751;SDS011;22718;49.494;7.036;2022-10-16T05:33:57;3.53;;;0.32;;
36751;SDS011;22718;49.494;7.036;2022-10-16T05:36:26;2.25;;;0.47;;
36751;SDS011;22718;49.494;7.036;2022-10-16T05:38:52;4.60;;;0.50;;
36751;SDS011;22718;49.494;7.036;2022-10-16T05:41:17;5.43;;;0.40;;
36751;SDS011;22718;49.494;7.036;2022-10-16T05:43:47;1.73;;;0.50;;
36751;SDS011;22718;49.494;7.036;2022-10-16T05:46:13;2.13;;;0.50;;
36751;SDS011;22718;49.494;7.036;2022-10-16T05:48:39;1.33;;;0.30;;
36751;SDS011;22718;49.494;7.036;2022-10-16T05:51:05;4.90;;;0.68;;
36751;SDS011;22718;49.494;7.036;2022-10-16T05:53:33;1.52;;;0.30;;
36751;SDS011;22718;49.494;7.036;2022-10-16T05:56:00;10.00;;;0.85;;
36751;SDS011;22718;49.494;7.036;2022-10-16T05:58:28;4.03;;;1.00;;
36751;SDS011;22718;49.494;7.036;2022-10-16T06:01:00;3.40;;;0.50;;
36751;SDS011;22718;49.494;7.036;2022-10-16T06:03:28;1.80;;;0.30;;
36751;SDS011;22718;49.494;7.036;2022-10-16T06:05:53;1.38;;;0.32;;
36751;SDS011;22718;49.494;7.036;2022-10-16T06:08:19;2.03;;;0.63;;
36751;SDS011;22718;49.494;7.036;2022-10-16T06:10:46;2.17;;;0.68;;
36751;SDS011;22718;49.494;7.036;2022-10-16T06:13:12;1.77;;;0.50;;
36751;SDS011;22718;49.494;7.036;2022-10-16T06:15:39;4.50;;;0.40;;
36751;SDS011;22718;49.494;7.036;2022-10-16T06:18:07;3.28;;;0.50;;
36751;SDS011;22718;49.494;7.036;2022-10-16T06:20:35;2.22;;;0.50;;
36751;SDS011;22718;49.494;7.036;2022-10-16T06:23:02;3.80;;;0.40;;
36751;SDS011;22718;49.494;7.036;2022-10-16T06:25:29;3.75;;;0.30;;
36751;SDS011;22718;49.494;7.036;2022-10-16T06:27:55;2.65;;;0.70;;
36751;SDS011;22718;49.494;7.036;2022-10-16T06:30:20;2.67;;;0.57;;
36751;SDS011;22718;49.494;7.036;2022-10-16T06:32:46;2.60;;;1.02;;
36751;SDS011;22718;49.494;7.036;2022-10-16T06:35:12;21.42;;;11.30;;
36751;SDS011;22718;49.494;7.036;2022-10-16T06:37:37;9.63;;;3.80;;
36751;SDS011;22718;49.494;7.036;2022-10-16T06:40:03;5.53;;;2.17;;
36751;SDS011;22718;49.494;7.036;2022-10-16T06:42:29;3.22;;;1.17;;
36751;SDS011;22718;49.494;7.036;2022-10-16T06:44:55;3.85;;;0.85;;
36751;SDS011;22718;49.494;7.036;2022-10-16T06:47:21;2.80;;;0.85;;
36751;SDS011;22718;49.494;7.036;2022-10-16T06:49:46;3.25;;;0.77;;
36751;SDS011;22718;49.494;7.036;2022-10-16T06:52:12;10.70;;;0.80;;
36751;SDS011;22718;49.494;7.036;2022-10-16T06:54:37;3.53;;;0.90;;
36751;SDS011;22718;49.494;7.036;2022-10-16T06:57:03;2.78;;;0.90;;
36751;SDS011;22718;49.494;7.036;2022-10-16T06:59:28;4.95;;;1.40;;
36751;SDS011;22718;49.494;7.036;2022-10-16T07:01:54;5.47;;;0.95;;
36751;SDS011;22718;49.494;7.036;2022-10-16T07:04:20;8.32;;;1.38;;
36751;SDS011;22718;49.494;7.036;2022-10-16T07:06:45;5.35;;;1.00;;
36751;SDS011;22718;49.494;7.036;2022-10-16T07:09:11;7.20;;;1.60;;
36751;SDS011;22718;49.494;7.036;2022-10-16T07:11:37;5.55;;;0.90;;
36751;SDS011;22718;49.494;7.036;2022-10-16T07:14:04;5.25;;;1.30;;
36751;SDS011;22718;49.494;7.036;2022-10-16T07:16:34;8.95;;;2.05;;
36751;SDS011;22718;49.494;7.036;2022-10-16T07:19:00;7.65;;;1.70;;
36751;SDS011;22718;49.494;7.036;2022-10-16T07:21:28;5.88;;;1.00;;
36751;SDS011;22718;49.494;7.036;2022-10-16T07:24:00;4.43;;;1.13;;
36751;SDS011;22718;49.494;7.036;2022-10-16T07:26:32;4.53;;;1.00;;
36751;SDS011;22718;49.494;7.036;2022-10-16T07:28:59;4.45;;;0.98;;
36751;SDS011;22718;49.494;7.036;2022-10-16T07:31:26;4.68;;;1.05;;
36751;SDS011;22718;49.494;7.036;2022-10-16T07:33:52;3.80;;;0.68;;
36751;SDS011;22718;49.494;7.036;2022-10-16T07:36:18;2.33;;;0.60;;
36751;SDS011;22718;49.494;7.036;2022-10-16T07:38:45;2.88;;;1.27;;
36751;SDS011;22718;49.494;7.036;2022-10-16T07:41:12;5.85;;;0.40;;
36751;SDS011;22718;49.494;7.036;2022-10-16T07:43:46;2.72;;;0.70;;
36751;SDS011;22718;49.494;7.036;2022-10-16T07:46:13;3.10;;;0.68;;
36751;SDS011;22718;49.494;7.036;2022-10-16T07:48:39;4.22;;;1.77;;
36751;SDS011;22718;49.494;7.036;2022-10-16T07:51:06;2.63;;;0.98;;
36751;SDS011;22718;49.494;7.036;2022-10-16T07:53:32;6.28;;;0.90;;
36751;SDS011;22718;49.494;7.036;2022-10-16T07:55:58;4.50;;;1.40;;
36751;SDS011;22718;49.494;7.036;2022-10-16T07:58:25;5.75;;;1.23;;
36751;SDS011;22718;49.494;7.036;2022-10-16T08:00:51;3.40;;;1.25;;
36751;SDS011;22718;49.494;7.036;2022-10-16T08:03:17;2.67;;;1.25;;
36751;SDS011;22718;49.494;7.036;2022-10-16T08:05:42;5.63;;;1.10;;
36751;SDS011;22718;49.494;7.036;2022-10-16T08:08:11;3.70;;;1.35;;
36751;SDS011;22718;49.494;7.036;2022-10-16T08:10:39;6.65;;;1.88;;
36751;SDS011;22718;49.494;7.036;2022-10-16T08:13:05;3.53;;;1.35;;
36751;SDS011;22718;49.494;7.036;2022-10-16T08:15:38;4.13;;;1.50;;
36751;SDS011;22718;49.494;7.036;2022-10-16T08:18:04;8.55;;;1.63;;
36751;SDS011;22718;49.494;7.036;2022-10-16T08:20:31;4.00;;;1.73;;
36751;SDS011;22718;49.494;7.036;2022-10-16T08:22:58;3.88;;;1.70;;
36751;SDS011;22718;49.494;7.036;2022-10-16T08:25:24;9.73;;;1.70;;
36751;SDS011;22718;49.494;7.036;2022-10-16T08:27:50;4.88;;;2.22;;
36751;SDS011;22718;49.494;7.036;2022-10-16T08:30:19;4.38;;;2.17;;
36751;SDS011;22718;49.494;7.036;2022-10-16T08:32:46;3.95;;;2.00;;
36751;SDS011;22718;49.494;7.036;2022-10-16T08:35:12;4.97;;;2.03;;
36751;SDS011;22718;49.494;7.036;2022-10-16T08:37:39;4.80;;;2.03;;
36751;SDS011;22718;49.494;7.036;2022-10-16T08:40:06;3.53;;;1.60;;
36751;SDS011;22718;49.494;7.036;2022-10-16T08:51:03;5.57;;;2.30;;
36751;SDS011;22718;49.494;7.036;2022-10-16T08:53:46;5.07;;;2.55;;
36751;SDS011;22718;49.494;7.036;2022-10-16T08:56:17;4.93;;;2.28;;
36751;SDS011;22718;49.494;7.036;2022-10-16T08:58:43;10.20;;;3.25;;
36751;SDS011;22718;49.494;7.036;2022-10-16T09:01:12;10.10;;;4.55;;
36751;SDS011;22718;49.494;7.036;2022-10-16T09:04:23;5.72;;;3.08;;
36751;SDS011;22718;49.494;7.036;2022-10-16T09:06:43;10.90;;;4.28;;
36751;SDS011;22718;49.494;7.036;2022-10-16T09:11:56;8.20;;;3.22;;
36751;SDS011;22718;49.494;7.036;2022-10-16T09:20:12;8.20;;;3.47;;
36751;SDS011;22718;49.494;7.036;2022-10-16T09:22:41;12.07;;;4.65;;
36751;SDS011;22718;49.494;7.036;2022-10-16T09:25:14;9.68;;;4.78;;
36751;SDS011;22718;49.494;7.036;2022-10-16T09:27:44;10.15;;;4.82;;
36751;SDS011;22718;49.494;7.036;2022-10-16T09:30:16;9.65;;;5.43;;
36751;SDS011;22718;49.494;7.036;2022-10-16T09:32:44;9.40;;;5.57;;
36751;SDS011;22718;49.494;7.036;2022-10-16T09:35:16;9.43;;;5.95;;
36751;SDS011;22718;49.494;7.036;2022-10-16T09:37:45;10.18;;;5.10;;
36751;SDS011;22718;49.494;7.036;2022-10-16T09:40:29;12.20;;;5.25;;
36751;SDS011;22718;49.494;7.036;2022-10-16T09:45:38;13.40;;;5.15;;
36751;SDS011;22718;49.494;7.036;2022-10-16T09:48:10;9.93;;;4.60;;
36751;SDS011;22718;49.494;7.036;2022-10-16T09:50:37;9.13;;;4.45;;
36751;SDS011;22718;49.494;7.036;2022-10-16T09:53:04;9.98;;;4.05;;
36751;SDS011;22718;49.494;7.036;2022-10-16T09:55:47;7.95;;;3.80;;
36751;SDS011;22718;49.494;7.036;2022-10-16T09:58:14;7.20;;;3.20;;
36751;SDS011;22718;49.494;7.036;2022-10-16T10:00:39;7.57;;;3.40;;
36751;SDS011;22718;49.494;7.036;2022-10-16T10:03:10;6.30;;;3.55;;
36751;SDS011;22718;49.494;7.036;2022-10-16T10:05:37;6.63;;;3.67;;
36751;SDS011;22718;49.494;7.036;2022-10-16T10:08:05;8.73;;;4.60;;
36751;SDS011;22718;49.494;7.036;2022-10-16T10:10:36;6.60;;;3.75;;
36751;SDS011;22718;49.494;7.036;2022-10-16T10:13:16;7.13;;;3.42;;
36751;SDS011;22718;49.494;7.036;2022-10-16T10:15:46;7.32;;;4.20;;
36751;SDS011;22718;49.494;7.036;2022-10-16T10:18:20;7.43;;;4.30;;
36751;SDS011;22718;49.494;7.036;2022-10-16T10:20:58;11.55;;;2.83;;
36751;SDS011;22718;49.494;7.036;2022-10-16T10:23:26;9.30;;;3.78;;
36751;SDS011;22718;49.494;7.036;2022-10-16T10:31:20;7.90;;;3.55;;
36751;SDS011;22718;49.494;7.036;2022-10-16T10:36:56;6.45;;;3.58;;
36751;SDS011;22718;49.494;7.036;2022-10-16T10:39:41;7.57;;;3.28;;
36751;SDS011;22718;49.494;7.036;2022-10-16T10:52:47;6.28;;;3.53;;
36751;SDS011;22718;49.494;7.036;2022-10-16T11:00:45;7.50;;;4.07;;
36751;SDS011;22718;49.494;7.036;2022-10-16T11:09:02;10.80;;;5.82;;
36751;SDS011;22718;49.494;7.036;2022-10-16T11:11:44;7.72;;;4.85;;
36751;SDS011;22718;49.494;7.036;2022-10-16T11:14:20;12.98;;;5.50;;
36751;SDS011;22718;49.494;7.036;2022-10-16T11:17:11;10.60;;;5.63;;
36751;SDS011;22718;49.494;7.036;2022-10-16T11:25:02;10.73;;;5.18;;
36751;SDS011;22718;49.494;7.036;2022-10-16T11:27:51;9.38;;;5.00;;
36751;SDS011;22718;49.494;7.036;2022-10-16T11:30:24;7.78;;;5.18;;
36751;SDS011;22718;49.494;7.036;2022-10-16T11:35:54;6.32;;;3.83;;
36751;SDS011;22718;49.494;7.036;2022-10-16T11:38:30;11.95;;;4.35;;
36751;SDS011;22718;49.494;7.036;2022-10-16T11:41:22;8.85;;;3.30;;
36751;SDS011;22718;49.494;7.036;2022-10-16T11:50:03;5.72;;;2.47;;
36751;SDS011;22718;49.494;7.036;2022-10-16T11:52:53;8.18;;;2.40;;
36751;SDS011;22718;49.494;7.036;2022-10-16T11:55:47;9.70;;;3.15;;
36751;SDS011;22718;49.494;7.036;2022-10-16T11:58:26;4.63;;;2.10;;
36751;SDS011;22718;49.494;7.036;2022-10-16T12:06:45;4.82;;;2.00;;
36751;SDS011;22718;49.494;7.036;2022-10-16T12:11:57;6.25;;;1.90;;
36751;SDS011;22718;49.494;7.036;2022-10-16T12:14:33;4.75;;;2.35;;
36751;SDS011;22718;49.494;7.036;2022-10-16T12:17:03;5.25;;;1.90;;
36751;SDS011;22718;49.494;7.036;2022-10-16T12:28:06;5.43;;;1.95;;
36751;SDS011;22718;49.494;7.036;2022-10-16T12:30:52;9.15;;;2.80;;
36751;SDS011;22718;49.494;7.036;2022-10-16T12:33:27;11.30;;;3.17;;
36751;SDS011;22718;49.494;7.036;2022-10-16T12:36:06;14.73;;;2.70;;
36751;SDS011;22718;49.494;7.036;2022-10-16T12:38:55;7.63;;;1.83;;
36751;SDS011;22718;49.494;7.036;2022-10-16T12:41:25;6.38;;;2.42;;
36751;SDS011;22718;49.494;7.036;2022-10-16T12:43:51;7.80;;;2.75;;
36751;SDS011;22718;49.494;7.036;2022-10-16T12:48:43;6.55;;;2.03;;
36751;SDS011;22718;49.494;7.036;2022-10-16T12:51:11;6.85;;;2.42;;
36751;SDS011;22718;49.494;7.036;2022-10-16T12:54:01;5.03;;;1.45;;
36751;SDS011;22718;49.494;7.036;2022-10-16T13:04:14;3.45;;;0.90;;
36751;SDS011;22718;49.494;7.036;2022-10-16T13:10:03;3.10;;;1.30;;
36751;SDS011;22718;49.494;7.036;2022-10-16T13:12:55;6.90;;;1.40;;
36751;SDS011;22718;49.494;7.036;2022-10-16T13:18:40;4.93;;;1.10;;
36751;SDS011;22718;49.494;7.036;2022-10-16T13:21:49;2.58;;;1.00;;
36751;SDS011;22718;49.494;7.036;2022-10-16T13:24:43;10.25;;;1.40;;
36751;SDS011;22718;49.494;7.036;2022-10-16T13:27:16;3.80;;;1.02;;
36751;SDS011;22718;49.494;7.036;2022-10-16T13:29:48;3.83;;;1.73;;
36751;SDS011;22718;49.494;7.036;2022-10-16T13:32:20;8.70;;;1.15;;
36751;SDS011;22718;49.494;7.036;2022-10-16T13:34:47;5.53;;;0.90;;
36751;SDS011;22718;49.494;7.036;2022-10-16T13:37:17;6.55;;;1.80;;
36751;SDS011;22718;49.494;7.036;2022-10-16T13:39:44;5.50;;;1.08;;
36751;SDS011;22718;49.494;7.036;2022-10-16T13:42:16;3.05;;;1.02;;
36751;SDS011;22718;49.494;7.036;2022-10-16T13:44:52;7.53;;;2.10;;
36751;SDS011;22718;49.494;7.036;2022-10-16T13:47:20;4.63;;;0.93;;
36751;SDS011;22718;49.494;7.036;2022-10-16T13:52:47;6.97;;;0.80;;
36751;SDS011;22718;49.494;7.036;2022-10-16T13:55:15;3.60;;;1.10;;
36751;SDS011;22718;49.494;7.036;2022-10-16T13:57:44;4.75;;;1.10;;
36751;SDS011;22718;49.494;7.036;2022-10-16T14:00:21;3.80;;;1.50;;
36751;SDS011;22718;49.494;7.036;2022-10-16T14:02:56;5.60;;;1.23;;
36751;SDS011;22718;49.494;7.036;2022-10-16T14:05:26;6.57;;;1.35;;
36751;SDS011;22718;49.494;7.036;2022-10-16T14:07:52;3.05;;;0.60;;
36751;SDS011;22718;49.494;7.036;2022-10-16T14:10:24;6.07;;;0.70;;
36751;SDS011;22718;49.494;7.036;2022-10-16T14:12:56;2.50;;;0.77;;
36751;SDS011;22718;49.494;7.036;2022-10-16T14:15:26;2.55;;;0.70;;
36751;SDS011;22718;49.494;7.036;2022-10-16T14:17:54;4.10;;;0.55;;
36751;SDS011;22718;49.494;7.036;2022-10-16T14:20:20;3.33;;;0.50;;
36751;SDS011;22718;49.494;7.036;2022-10-16T14:25:53;2.17;;;0.55;;
36751;SDS011;22718;49.494;7.036;2022-10-16T14:28:20;6.38;;;0.80;;
36751;SDS011;22718;49.494;7.036;2022-10-16T14:30:51;2.85;;;0.82;;
36751;SDS011;22718;49.494;7.036;2022-10-16T14:33:31;4.28;;;1.10;;
36751;SDS011;22718;49.494;7.036;2022-10-16T14:36:01;2.60;;;0.98;;
36751;SDS011;22718;49.494;7.036;2022-10-16T14:38:36;4.70;;;0.60;;
36751;SDS011;22718;49.494;7.036;2022-10-16T14:41:04;6.78;;;0.77;;
36751;SDS011;22718;49.494;7.036;2022-10-16T14:43:37;2.63;;;0.60;;
36751;SDS011;22718;49.494;7.036;2022-10-16T14:46:50;9.18;;;0.95;;
36751;SDS011;22718;49.494;7.036;2022-10-16T14:51:35;4.32;;;0.80;;
36751;SDS011;22718;49.494;7.036;2022-10-16T14:54:02;8.68;;;0.70;;
36751;SDS011;22718;49.494;7.036;2022-10-16T14:56:29;4.55;;;0.90;;
36751;SDS011;22718;49.494;7.036;2022-10-16T14:58:58;2.50;;;0.88;;
36751;SDS011;22718;49.494;7.036;2022-10-16T15:01:25;3.83;;;0.80;;
36751;SDS011;22718;49.494;7.036;2022-10-16T15:03:51;6.85;;;0.95;;
36751;SDS011;22718;49.494;7.036;2022-10-16T15:06:20;3.28;;;0.70;;
36751;SDS011;22718;49.494;7.036;2022-10-16T15:08:45;9.10;;;1.10;;
36751;SDS011;22718;49.494;7.036;2022-10-16T15:11:15;5.32;;;0.80;;
36751;SDS011;22718;49.494;7.036;2022-10-16T15:13:43;7.60;;;0.90;;
36751;SDS011;22718;49.494;7.036;2022-10-16T15:16:10;5.93;;;1.25;;
36751;SDS011;22718;49.494;7.036;2022-10-16T15:18:37;2.20;;;0.60;;
36751;SDS011;22718;49.494;7.036;2022-10-16T15:21:03;6.18;;;0.90;;
36751;SDS011;22718;49.494;7.036;2022-10-16T15:23:28;6.75;;;1.20;;
36751;SDS011;22718;49.494;7.036;2022-10-16T15:25:54;6.78;;;0.98;;
36751;SDS011;22718;49.494;7.036;2022-10-16T15:28:21;7.88;;;1.02;;
36751;SDS011;22718;49.494;7.036;2022-10-16T15:30:51;4.95;;;1.08;;
36751;SDS011;22718;49.494;7.036;2022-10-16T15:33:22;5.00;;;1.10;;
36751;SDS011;22718;49.494;7.036;2022-10-16T15:35:52;2.67;;;0.77;;
36751;SDS011;22718;49.494;7.036;2022-10-16T15:38:18;3.53;;;0.98;;
36751;SDS011;22718;49.494;7.036;2022-10-16T15:40:45;4.97;;;1.58;;
36751;SDS011;22718;49.494;7.036;2022-10-16T15:43:12;7.43;;;1.42;;
36751;SDS011;22718;49.494;7.036;2022-10-16T15:45:37;5.20;;;1.30;;
36751;SDS011;22718;49.494;7.036;2022-10-16T15:48:03;7.07;;;1.00;;
36751;SDS011;22718;49.494;7.036;2022-10-16T15:50:30;4.13;;;0.93;;
36751;SDS011;22718;49.494;7.036;2022-10-16T15:52:57;5.88;;;1.48;;
36751;SDS011;22718;49.494;7.036;2022-10-16T15:55:22;3.95;;;1.50;;
36751;SDS011;22718;49.494;7.036;2022-10-16T15:57:48;6.32;;;1.52;;
36751;SDS011;22718;49.494;7.036;2022-10-16T16:00:15;9.18;;;1.52;;
36751;SDS011;22718;49.494;7.036;2022-10-16T16:02:43;7.25;;;1.42;;
36751;SDS011;22718;49.494;7.036;2022-10-16T16:05:14;11.27;;;1.70;;
36751;SDS011;22718;49.494;7.036;2022-10-16T16:07:40;4.82;;;1.35;;
36751;SDS011;22718;49.494;7.036;2022-10-16T16:10:07;6.50;;;1.60;;
36751;SDS011;22718;49.494;7.036;2022-10-16T16:12:34;3.90;;;1.50;;
36751;SDS011;22718;49.494;7.036;2022-10-16T16:15:00;7.90;;;1.65;;
36751;SDS011;22718;49.494;7.036;2022-10-16T16:17:26;6.47;;;2.35;;
36751;SDS011;22718;49.494;7.036;2022-10-16T16:19:51;5.60;;;1.52;;
36751;SDS011;22718;49.494;7.036;2022-10-16T16:22:17;7.53;;;1.98;;
36751;SDS011;22718;49.494;7.036;2022-10-16T16:24:43;7.03;;;1.92;;
36751;SDS011;22718;49.494;7.036;2022-10-16T16:27:09;10.50;;;2.30;;
36751;SDS011;22718;49.494;7.036;2022-10-16T16:29:34;8.15;;;2.03;;
36751;SDS011;22718;49.494;7.036;2022-10-16T16:32:00;7.53;;;1.90;;
36751;SDS011;22718;49.494;7.036;2022-10-16T16:34:27;6.85;;;1.63;;
36751;SDS011;22718;49.494;7.036;2022-10-16T16:36:55;11.20;;;2.10;;
36751;SDS011;22718;49.494;7.036;2022-10-16T16:39:22;15.48;;;2.58;;
36751;SDS011;22718;49.494;7.036;2022-10-16T16:41:48;21.70;;;2.55;;
36751;SDS011;22718;49.494;7.036;2022-10-16T16:44:15;10.55;;;2.03;;
36751;SDS011;22718;49.494;7.036;2022-10-16T16:46:41;6.00;;;1.52;;
36751;SDS011;22718;49.494;7.036;2022-10-16T16:49:10;11.95;;;2.42;;
36751;SDS011;22718;49.494;7.036;2022-10-16T16:51:37;9.63;;;3.08;;
36751;SDS011;22718;49.494;7.036;2022-10-16T16:54:04;5.57;;;2.13;;
36751;SDS011;22718;49.494;7.036;2022-10-16T16:56:30;5.72;;;1.80;;
36751;SDS011;22718;49.494;7.036;2022-10-16T16:58:56;6.90;;;2.92;;
36751;SDS011;22718;49.494;7.036;2022-10-16T17:01:23;5.72;;;2.22;;
36751;SDS011;22718;49.494;7.036;2022-10-16T17:03:51;12.75;;;2.92;;
36751;SDS011;22718;49.494;7.036;2022-10-16T17:06:22;13.68;;;3.30;;
36751;SDS011;22718;49.494;7.036;2022-10-16T17:08:50;7.47;;;2.45;;